createdAt,value
2018-04-10T00:00:21.115Z,68.1
2018-04-10T00:01:22.471Z,68.0
2018-04-10T00:02:23.813Z,68.0
2018-04-10T00:03:25.175Z,68.5
2018-04-10T00:04:26.527Z,68.7
2018-04-10T00:05:27.883Z,68.2
2018-04-10T00:06:29.240Z,68.5
2018-04-10T00:07:30.598Z,68.6
2018-04-10T00:08:31.945Z,68.9
2018-04-10T00:09:33.312Z,68.6
2018-04-10T00:10:34.671Z,68.6
2018-04-10T00:11:36.203Z,69.0
2018-04-10T00:12:37.568Z,69.4
2018-04-10T00:13:38.916Z,69.2
2018-04-10T00:14:40.278Z,69.2
2018-04-10T00:15:41.637Z,69.4
2018-04-10T00:16:42.988Z,69.6
2018-04-10T00:17:44.334Z,69.4
2018-04-10T00:18:45.698Z,69.4
2018-04-10T00:19:47.046Z,69.2
2018-04-10T00:20:48.417Z,69.6
2018-04-10T00:21:49.759Z,69.5
2018-04-10T00:22:51.120Z,69.7
2018-04-10T00:23:52.481Z,69.4
2018-04-10T00:24:53.823Z,69.8
2018-04-10T00:25:55.181Z,70.0
2018-04-10T00:26:56.542Z,69.8
2018-04-10T00:27:57.903Z,69.8
2018-04-10T00:28:59.267Z,70.1
2018-04-10T00:30:00.628Z,70.3
2018-04-10T00:31:01.987Z,70.1
2018-04-10T00:32:03.341Z,70.5
2018-04-10T00:33:04.691Z,70.4
2018-04-10T00:34:06.048Z,70.4
2018-04-10T00:35:07.400Z,70.1
2018-04-10T00:36:08.755Z,70.1
2018-04-10T00:37:10.117Z,70.4
2018-04-10T00:38:11.470Z,70.3
2018-04-10T00:39:12.831Z,70.3
2018-04-10T00:40:14.186Z,70.1
2018-04-10T00:41:15.537Z,70.4
2018-04-10T00:42:16.893Z,70.0
2018-04-10T00:43:18.250Z,70.4
2018-04-10T00:44:19.601Z,70.4
2018-04-10T00:45:20.961Z,70.4
2018-04-10T00:46:22.316Z,70.2
2018-04-10T00:47:23.671Z,70.5
2018-04-10T00:48:25.015Z,70.7
2018-04-10T00:49:26.378Z,70.7
2018-04-10T00:50:27.780Z,70.7
2018-04-10T00:51:29.136Z,70.7
2018-04-10T00:52:30.488Z,71.1
2018-04-10T00:53:31.838Z,70.8
2018-04-10T00:54:33.193Z,71.4
2018-04-10T00:55:34.538Z,71.5
2018-04-10T00:56:35.906Z,71.5
2018-04-10T00:57:37.267Z,71.2
2018-04-10T00:58:38.616Z,71.2
2018-04-10T00:59:39.968Z,70.9
2018-04-10T01:00:41.332Z,71.1
2018-04-10T01:01:42.678Z,71.3
2018-04-10T01:02:44.025Z,71.1
2018-04-10T01:03:45.502Z,71.4
2018-04-10T01:04:46.859Z,71.4
2018-04-10T01:05:48.214Z,71.4
2018-04-10T01:06:49.574Z,71.5
2018-04-10T01:07:50.925Z,71.5
2018-04-10T01:08:52.281Z,71.5
2018-04-10T01:09:53.639Z,71.7
2018-04-10T01:10:54.992Z,71.9
2018-04-10T01:11:56.353Z,72.0
2018-04-10T01:12:57.709Z,72.1
2018-04-10T01:13:59.067Z,71.9
2018-04-10T01:15:00.430Z,71.8
2018-04-10T01:16:01.783Z,72.2
2018-04-10T01:17:03.140Z,72.0
2018-04-10T01:18:04.495Z,72.1
2018-04-10T01:19:05.847Z,72.1
2018-04-10T01:20:07.203Z,72.1
2018-04-10T01:21:08.557Z,72.1
2018-04-10T01:22:09.912Z,72.0
2018-04-10T01:23:11.260Z,72.1
2018-04-10T01:24:12.617Z,72.5
2018-04-10T01:25:13.969Z,72.3
2018-04-10T01:26:15.326Z,72.6
2018-04-10T01:27:16.682Z,72.8
2018-04-10T01:28:18.036Z,72.6
2018-04-10T01:29:19.393Z,72.6
2018-04-10T01:30:20.745Z,72.6
2018-04-10T01:31:22.097Z,72.4
2018-04-10T01:32:23.464Z,72.7
2018-04-10T01:33:24.817Z,72.7
2018-04-10T01:34:26.198Z,72.7
2018-04-10T01:35:27.560Z,72.6
2018-04-10T01:36:28.918Z,72.7
2018-04-10T01:37:30.271Z,72.9
2018-04-10T01:38:31.631Z,72.6
2018-04-10T01:39:32.984Z,73.3
2018-04-10T01:40:34.347Z,72.8
2018-04-10T01:41:35.886Z,73.3
2018-04-10T01:42:37.203Z,73.1
2018-04-10T01:43:38.561Z,73.7
2018-04-10T01:44:39.920Z,73.6
2018-04-10T01:45:41.283Z,73.3
2018-04-10T01:46:42.632Z,73.4
2018-04-10T01:47:43.993Z,73.4
2018-04-10T01:48:45.347Z,73.6
2018-04-10T01:49:46.702Z,73.3
2018-04-10T01:50:48.062Z,73.5
2018-04-10T01:51:49.417Z,73.9
2018-04-10T01:52:50.768Z,73.8
2018-04-10T01:53:52.124Z,74.4
2018-04-10T01:54:53.483Z,74.1
2018-04-10T01:55:54.838Z,74.2
2018-04-10T01:56:56.193Z,74.3
2018-04-10T01:57:57.548Z,74.5
2018-04-10T01:58:58.896Z,74.3
2018-04-10T02:00:00.241Z,74.3
2018-04-10T02:01:01.606Z,74.7
2018-04-10T02:02:02.961Z,74.6
2018-04-10T02:03:04.308Z,74.4
2018-04-10T02:04:05.664Z,74.7
2018-04-10T02:05:07.031Z,74.5
2018-04-10T02:06:08.403Z,74.4
2018-04-10T02:07:09.761Z,74.4
2018-04-10T02:08:11.107Z,74.5
2018-04-10T02:09:12.464Z,74.8
2018-04-10T02:10:14.551Z,74.4
2018-04-10T02:11:15.898Z,74.7
2018-04-10T02:12:17.253Z,74.4
2018-04-10T02:13:18.611Z,74.5
2018-04-10T02:14:19.964Z,74.5
2018-04-10T02:15:21.314Z,74.4
2018-04-10T02:16:22.671Z,74.6
2018-04-10T02:17:24.517Z,74.9
2018-04-10T02:18:25.869Z,75.0
2018-04-10T02:19:27.216Z,75.0
2018-04-10T02:20:28.571Z,74.9
2018-04-10T02:21:29.937Z,75.0
2018-04-10T02:22:31.298Z,75.3
2018-04-10T02:23:32.650Z,75.1
2018-04-10T02:24:34.002Z,75.5
2018-04-10T02:25:35.352Z,75.3
2018-04-10T02:26:36.695Z,75.1
2018-04-10T02:27:38.058Z,75.2
2018-04-10T02:28:39.410Z,75.4
2018-04-10T02:29:40.768Z,75.7
2018-04-10T02:30:42.123Z,75.6
2018-04-10T02:31:43.483Z,75.3
2018-04-10T02:32:45.261Z,75.0
2018-04-10T02:33:46.572Z,75.3
2018-04-10T02:34:47.921Z,75.5
2018-04-10T02:35:49.280Z,75.5
2018-04-10T02:36:50.630Z,75.1
2018-04-10T02:37:51.988Z,75.2
2018-04-10T02:38:53.337Z,75.4
2018-04-10T02:39:54.692Z,75.4
2018-04-10T02:40:56.044Z,75.4
2018-04-10T02:41:57.398Z,75.6
2018-04-10T02:42:58.755Z,75.6
2018-04-10T02:44:00.108Z,75.9
2018-04-10T02:45:01.457Z,75.9
2018-04-10T02:46:02.820Z,76.2
2018-04-10T02:47:04.177Z,75.8
2018-04-10T02:48:05.531Z,76.3
2018-04-10T02:49:06.884Z,76.3
2018-04-10T02:50:08.243Z,76.1
2018-04-10T02:51:09.617Z,76.1
2018-04-10T02:52:10.960Z,76.3
2018-04-10T02:53:12.316Z,76.2
2018-04-10T02:54:13.676Z,76.0
2018-04-10T02:55:15.024Z,76.1
2018-04-10T02:56:16.381Z,75.8
2018-04-10T02:57:17.745Z,76.4
2018-04-10T02:58:19.095Z,76.6
2018-04-10T02:59:20.448Z,76.9
2018-04-10T03:00:21.810Z,76.5
2018-04-10T03:01:23.156Z,76.2
2018-04-10T03:02:24.515Z,76.0
2018-04-10T03:03:25.864Z,75.8
2018-04-10T03:04:27.223Z,76.0
2018-04-10T03:05:28.580Z,76.3
2018-04-10T03:06:29.936Z,76.6
2018-04-10T03:07:31.296Z,76.5
2018-04-10T03:08:32.658Z,76.3
2018-04-10T03:09:34.005Z,76.3
2018-04-10T03:10:35.357Z,76.9
2018-04-10T03:11:36.743Z,76.6
2018-04-10T03:12:38.100Z,77.0
2018-04-10T03:13:39.447Z,76.5
2018-04-10T03:14:40.804Z,76.2
2018-04-10T03:15:42.159Z,76.4
2018-04-10T03:16:43.516Z,76.7
2018-04-10T03:17:44.863Z,76.9
2018-04-10T03:18:46.231Z,77.2
2018-04-10T03:19:47.592Z,77.2
2018-04-10T03:20:48.973Z,77.1
2018-04-10T03:21:50.300Z,77.1
2018-04-10T03:22:51.660Z,77.1
2018-04-10T03:23:53.013Z,77.1
2018-04-10T03:24:54.370Z,77.1
2018-04-10T03:25:55.721Z,77.1
2018-04-10T03:26:57.077Z,77.1
2018-04-10T03:27:58.433Z,77.0
2018-04-10T03:28:59.795Z,77.1
2018-04-10T03:30:01.144Z,76.7
2018-04-10T03:31:02.494Z,77.1
2018-04-10T03:32:03.842Z,77.2
2018-04-10T03:33:05.198Z,76.9
2018-04-10T03:34:06.559Z,77.1
2018-04-10T03:35:07.909Z,77.1
2018-04-10T03:36:09.277Z,77.2
2018-04-10T03:37:10.635Z,77.1
2018-04-10T03:38:11.983Z,76.8
2018-04-10T03:39:13.340Z,77.3
2018-04-10T03:40:14.695Z,77.2
2018-04-10T03:41:16.052Z,77.3
2018-04-10T03:42:17.414Z,77.4
2018-04-10T03:43:18.753Z,77.2
2018-04-10T03:44:20.105Z,77.1
2018-04-10T03:45:21.461Z,77.3
2018-04-10T03:46:22.814Z,77.3
2018-04-10T03:47:24.174Z,76.9
2018-04-10T03:48:25.535Z,76.9
2018-04-10T03:49:26.892Z,77.6
2018-04-10T03:50:28.248Z,77.0
2018-04-10T03:51:29.604Z,77.1
2018-04-10T03:52:30.957Z,77.2
2018-04-10T03:53:32.311Z,77.3
2018-04-10T03:54:33.659Z,77.1
2018-04-10T03:55:35.014Z,77.2
2018-04-10T03:56:36.377Z,77.3
2018-04-10T03:57:37.727Z,77.7
2018-04-10T03:58:39.084Z,77.6
2018-04-10T03:59:40.449Z,77.5
2018-04-10T04:00:41.805Z,77.8
2018-04-10T04:01:43.151Z,77.7
2018-04-10T04:02:44.509Z,77.8
2018-04-10T04:03:45.866Z,77.7
2018-04-10T04:04:47.220Z,78.6
2018-04-10T04:05:48.572Z,78.0
2018-04-10T04:06:49.937Z,77.7
2018-04-10T04:07:51.280Z,77.8
2018-04-10T04:08:52.642Z,77.8
2018-04-10T04:09:53.992Z,77.3
2018-04-10T04:10:55.353Z,77.7
2018-04-10T04:11:56.706Z,77.6
2018-04-10T04:12:58.057Z,77.9
2018-04-10T04:13:59.414Z,77.4
2018-04-10T04:15:00.765Z,77.7
2018-04-10T04:16:02.151Z,77.6
2018-04-10T04:17:03.642Z,77.5
2018-04-10T04:18:05.001Z,77.7
2018-04-10T04:19:06.364Z,77.6
2018-04-10T04:20:07.709Z,77.6
2018-04-10T04:21:09.062Z,77.3
2018-04-10T04:22:10.419Z,77.6
2018-04-10T04:23:11.776Z,77.5
2018-04-10T04:24:13.136Z,77.7
2018-04-10T04:25:14.494Z,78.0
2018-04-10T04:26:15.857Z,77.8
2018-04-10T04:27:17.209Z,77.3
2018-04-10T04:28:18.573Z,77.1
2018-04-10T04:29:19.928Z,77.3
2018-04-10T04:30:21.295Z,77.2
2018-04-10T04:31:22.647Z,77.4
2018-04-10T04:32:24.004Z,77.4
2018-04-10T04:33:25.372Z,77.3
2018-04-10T04:34:26.724Z,77.4
2018-04-10T04:35:28.078Z,77.8
2018-04-10T04:36:29.433Z,77.9
2018-04-10T04:37:30.788Z,78.0
2018-04-10T04:38:32.144Z,77.7
2018-04-10T04:39:33.500Z,77.7
2018-04-10T04:40:34.856Z,77.7
2018-04-10T04:41:36.335Z,78.0
2018-04-10T04:42:37.687Z,77.8
2018-04-10T04:43:39.064Z,77.7
2018-04-10T04:44:40.411Z,77.7
2018-04-10T04:45:41.771Z,77.7
2018-04-10T04:46:43.135Z,77.2
2018-04-10T04:47:44.484Z,77.3
2018-04-10T04:48:45.848Z,77.1
2018-04-10T04:49:47.209Z,77.1
2018-04-10T04:50:48.568Z,77.3
2018-04-10T04:51:49.963Z,78.0
2018-04-10T04:52:51.323Z,77.7
2018-04-10T04:53:52.687Z,77.7
2018-04-10T04:54:54.054Z,77.9
2018-04-10T04:55:55.413Z,77.6
2018-04-10T04:56:56.773Z,77.8
2018-04-10T04:57:58.144Z,77.7
2018-04-10T04:58:59.504Z,77.9
2018-04-10T05:00:00.862Z,77.5
2018-04-10T05:01:02.224Z,77.3
2018-04-10T05:02:04.545Z,77.4
2018-04-10T05:03:05.908Z,77.5
2018-04-10T05:04:07.266Z,77.6
2018-04-10T05:05:08.628Z,77.2
2018-04-10T05:06:09.980Z,77.4
2018-04-10T05:07:11.338Z,77.2
2018-04-10T05:08:12.697Z,77.5
2018-04-10T05:09:14.074Z,77.6
2018-04-10T05:10:15.431Z,77.5
2018-04-10T05:11:16.784Z,77.4
2018-04-10T05:12:18.147Z,77.0
2018-04-10T05:13:19.510Z,77.3
2018-04-10T05:14:20.860Z,77.5
2018-04-10T05:15:22.247Z,77.4
2018-04-10T05:16:23.580Z,77.3
2018-04-10T05:17:24.944Z,77.5
2018-04-10T05:18:26.319Z,77.3
2018-04-10T05:19:27.679Z,77.5
2018-04-10T05:20:29.033Z,77.7
2018-04-10T05:21:30.399Z,77.7
2018-04-10T05:22:31.753Z,77.2
2018-04-10T05:23:33.108Z,77.4
2018-04-10T05:24:34.475Z,77.2
2018-04-10T05:25:35.836Z,77.5
2018-04-10T05:26:37.202Z,77.5
2018-04-10T05:27:38.564Z,77.3
2018-04-10T05:28:39.926Z,77.3
2018-04-10T05:29:41.281Z,77.5
2018-04-10T05:30:42.654Z,77.3
2018-04-10T05:31:44.014Z,77.3
2018-04-10T05:32:45.373Z,77.8
2018-04-10T05:33:46.727Z,77.2
2018-04-10T05:34:48.085Z,77.3
2018-04-10T05:35:49.450Z,77.3
2018-04-10T05:36:50.808Z,77.0
2018-04-10T05:37:52.168Z,77.4
2018-04-10T05:38:53.529Z,77.4
2018-04-10T05:39:54.882Z,77.4
2018-04-10T05:40:56.246Z,77.4
2018-04-10T05:41:57.615Z,77.4
2018-04-10T05:42:58.966Z,77.3
2018-04-10T05:44:00.321Z,77.4
2018-04-10T05:45:01.679Z,76.9
2018-04-10T05:46:03.029Z,77.3
2018-04-10T05:47:04.443Z,76.9
2018-04-10T05:48:05.747Z,76.9
2018-04-10T05:49:07.109Z,77.2
2018-04-10T05:50:08.477Z,77.1
2018-04-10T05:51:09.828Z,77.0
2018-04-10T05:52:11.189Z,76.8
2018-04-10T05:53:12.544Z,77.0
2018-04-10T05:54:13.905Z,77.0
2018-04-10T05:55:15.265Z,77.3
2018-04-10T05:56:16.629Z,77.3
2018-04-10T05:57:17.994Z,77.2
2018-04-10T05:58:19.369Z,77.2
2018-04-10T05:59:20.728Z,76.8
2018-04-10T06:00:22.083Z,76.8
2018-04-10T06:01:23.443Z,76.9
2018-04-10T06:02:24.810Z,77.2
2018-04-10T06:03:26.164Z,77.2
2018-04-10T06:04:27.534Z,77.2
2018-04-10T06:05:28.894Z,77.0
2018-04-10T06:06:30.260Z,77.1
2018-04-10T06:07:31.625Z,76.9
2018-04-10T06:08:32.983Z,77.1
2018-04-10T06:09:34.349Z,76.9
2018-04-10T06:10:35.730Z,76.9
2018-04-10T06:11:37.100Z,76.9
2018-04-10T06:12:38.458Z,77.3
2018-04-10T06:13:39.825Z,76.8
2018-04-10T06:14:41.181Z,76.9
2018-04-10T06:15:42.542Z,76.7
2018-04-10T06:16:43.904Z,76.6
2018-04-10T06:17:45.267Z,76.8
2018-04-10T06:18:46.625Z,76.4
2018-04-10T06:19:47.987Z,76.5
2018-04-10T06:20:49.359Z,76.6
2018-04-10T06:21:50.719Z,76.9
2018-04-10T06:22:52.079Z,76.3
2018-04-10T06:23:53.442Z,76.5
2018-04-10T06:24:54.812Z,76.3
2018-04-10T06:25:56.188Z,76.2
2018-04-10T06:26:57.606Z,76.1
2018-04-10T06:27:58.982Z,76.6
2018-04-10T06:29:00.343Z,76.8
2018-04-10T06:30:01.703Z,76.6
2018-04-10T06:31:03.066Z,76.4
2018-04-10T06:32:04.436Z,76.5
2018-04-10T06:33:05.812Z,76.3
2018-04-10T06:34:07.183Z,76.1
2018-04-10T06:35:08.561Z,76.3
2018-04-10T06:36:09.918Z,76.2
2018-04-10T06:37:11.278Z,76.4
2018-04-10T06:38:12.647Z,76.5
2018-04-10T06:39:14.008Z,75.7
2018-04-10T06:40:15.374Z,75.9
2018-04-10T06:41:16.752Z,75.4
2018-04-10T06:42:18.104Z,75.5
2018-04-10T06:43:19.469Z,75.3
2018-04-10T06:44:20.833Z,75.0
2018-04-10T06:45:22.200Z,74.9
2018-04-10T06:46:23.561Z,75.0
2018-04-10T06:47:24.917Z,74.7
2018-04-10T06:48:26.291Z,74.4
2018-04-10T06:49:27.652Z,74.9
2018-04-10T06:50:29.021Z,74.2
2018-04-10T06:51:30.380Z,74.5
2018-04-10T06:52:31.748Z,74.4
2018-04-10T06:53:33.113Z,73.8
2018-04-10T06:54:34.479Z,73.8
2018-04-10T06:55:35.841Z,73.9
2018-04-10T06:56:37.208Z,73.8
2018-04-10T06:57:38.565Z,73.4
2018-04-10T06:58:39.927Z,72.9
2018-04-10T06:59:41.291Z,73.1
2018-04-10T07:00:42.651Z,72.7
2018-04-10T07:01:44.039Z,72.9
2018-04-10T07:02:45.397Z,72.6
2018-04-10T07:03:46.762Z,72.6
2018-04-10T07:04:48.127Z,72.8
2018-04-10T07:05:49.497Z,72.8
2018-04-10T07:06:50.858Z,72.9
2018-04-10T07:07:52.224Z,72.9
2018-04-10T07:08:54.301Z,72.8
2018-04-10T07:09:55.675Z,72.5
2018-04-10T07:10:57.038Z,72.7
2018-04-10T07:11:58.405Z,72.4
2018-04-10T07:12:59.772Z,72.2
2018-04-10T07:14:01.134Z,72.3
2018-04-10T07:15:02.509Z,72.2
2018-04-10T07:16:03.871Z,72.4
2018-04-10T07:17:05.243Z,72.4
2018-04-10T07:18:06.611Z,72.3
2018-04-10T07:19:07.983Z,72.3
2018-04-10T07:20:09.345Z,72.1
2018-04-10T07:21:10.712Z,72.3
2018-04-10T07:22:12.081Z,72.1
2018-04-10T07:23:13.460Z,72.5
2018-04-10T07:24:14.832Z,72.7
2018-04-10T07:25:16.200Z,72.4
2018-04-10T07:26:17.564Z,72.8
2018-04-10T07:27:18.932Z,72.3
2018-04-10T07:28:20.311Z,72.1
2018-04-10T07:29:21.690Z,71.4
2018-04-10T07:30:23.065Z,71.9
2018-04-10T07:31:24.433Z,71.8
2018-04-10T07:32:25.808Z,71.3
2018-04-10T07:33:27.199Z,70.9
2018-04-10T07:34:28.568Z,70.5
2018-04-10T07:35:29.939Z,70.6
2018-04-10T07:36:31.310Z,70.6
2018-04-10T07:37:32.674Z,70.2
2018-04-10T07:38:34.048Z,70.1
2018-04-10T07:39:35.454Z,70.0
2018-04-10T07:40:36.794Z,70.0
2018-04-10T07:41:38.166Z,69.8
2018-04-10T07:42:39.528Z,69.8
2018-04-10T07:43:40.915Z,69.5
2018-04-10T07:44:42.285Z,69.8
2018-04-10T07:45:43.648Z,69.8
2018-04-10T07:46:45.041Z,69.5
2018-04-10T07:47:46.405Z,69.4
2018-04-10T07:48:47.776Z,68.8
2018-04-10T07:49:49.146Z,68.6
2018-04-10T07:50:50.520Z,68.8
2018-04-10T07:51:51.890Z,68.5
2018-04-10T07:52:53.264Z,68.8
2018-04-10T07:53:54.663Z,68.2
2018-04-10T07:54:56.035Z,68.2
2018-04-10T07:55:57.406Z,68.1
2018-04-10T07:56:58.775Z,68.3
2018-04-10T07:58:00.151Z,67.7
2018-04-10T07:59:01.528Z,67.9
2018-04-10T08:00:02.893Z,67.5
2018-04-10T08:01:04.356Z,67.9
2018-04-10T08:02:05.724Z,67.8
2018-04-10T08:03:07.096Z,67.9
2018-04-10T08:04:08.469Z,68.2
2018-04-10T08:05:09.843Z,68.2
2018-04-10T08:06:11.225Z,67.8
2018-04-10T08:07:12.600Z,67.7
2018-04-10T08:08:13.974Z,67.8
2018-04-10T08:09:15.351Z,67.1
2018-04-10T08:10:16.717Z,67.2
2018-04-10T08:11:18.095Z,67.5
2018-04-10T08:12:19.473Z,67.0
2018-04-10T08:13:20.841Z,66.9
2018-04-10T08:14:22.225Z,66.9
2018-04-10T08:15:23.624Z,66.2
2018-04-10T08:16:25.002Z,66.4
2018-04-10T08:17:26.378Z,66.4
2018-04-10T08:18:27.746Z,65.7
2018-04-10T08:19:29.121Z,66.1
2018-04-10T08:20:30.497Z,66.3
2018-04-10T08:21:31.898Z,65.4
2018-04-10T08:22:33.282Z,65.2
2018-04-10T08:23:34.658Z,64.8
2018-04-10T08:24:36.032Z,64.8
2018-04-10T08:25:37.398Z,64.5
2018-04-10T08:26:38.775Z,64.5
2018-04-10T08:27:40.140Z,64.3
2018-04-10T08:28:41.515Z,64.2
2018-04-10T08:29:42.892Z,64.3
2018-04-10T08:30:44.265Z,64.0
2018-04-10T08:31:45.649Z,63.7
2018-04-10T08:32:47.023Z,63.7
2018-04-10T08:33:48.414Z,63.0
2018-04-10T08:34:49.792Z,63.2
2018-04-10T08:35:51.176Z,63.1
2018-04-10T08:36:52.554Z,63.2
2018-04-10T08:37:53.962Z,63.2
2018-04-10T08:38:55.317Z,63.1
2018-04-10T08:39:56.701Z,63.3
2018-04-10T08:40:58.079Z,63.2
2018-04-10T08:41:59.454Z,63.0
2018-04-10T08:43:00.836Z,63.1
2018-04-10T08:44:02.220Z,63.0
2018-04-10T08:45:03.611Z,63.1
2018-04-10T08:46:04.963Z,63.0
2018-04-10T08:47:06.347Z,63.2
2018-04-10T08:48:07.721Z,63.2
2018-04-10T08:49:09.105Z,62.5
2018-04-10T08:50:10.490Z,62.7
2018-04-10T08:51:11.886Z,62.7
2018-04-10T08:52:13.259Z,62.8
2018-04-10T08:53:14.632Z,62.5
2018-04-10T08:54:16.000Z,62.3
2018-04-10T08:55:17.388Z,62.5
2018-04-10T08:56:18.761Z,62.7
2018-04-10T08:57:20.147Z,62.6
2018-04-10T08:58:21.517Z,62.6
2018-04-10T08:59:22.892Z,62.5
2018-04-10T09:00:24.301Z,62.6
2018-04-10T09:01:25.645Z,62.9
2018-04-10T09:02:27.020Z,63.1
2018-04-10T09:03:28.390Z,63.2
2018-04-10T09:04:29.768Z,62.5
2018-04-10T09:05:31.153Z,62.8
2018-04-10T09:06:32.525Z,62.5
2018-04-10T09:07:33.920Z,62.0
2018-04-10T09:08:35.297Z,62.1
2018-04-10T09:09:36.679Z,61.7
2018-04-10T09:10:38.055Z,61.7
2018-04-10T09:11:39.423Z,61.7
2018-04-10T09:12:40.816Z,61.8
2018-04-10T09:13:42.195Z,61.7
2018-04-10T09:14:43.568Z,61.6
2018-04-10T09:15:44.941Z,61.8
2018-04-10T09:16:46.315Z,61.8
2018-04-10T09:17:47.685Z,61.4
2018-04-10T09:18:49.064Z,61.5
2018-04-10T09:19:50.445Z,61.5
2018-04-10T09:20:51.818Z,61.3
2018-04-10T09:21:53.263Z,61.2
2018-04-10T09:22:54.543Z,61.3
2018-04-10T09:23:55.908Z,61.0
2018-04-10T09:24:57.295Z,60.9
2018-04-10T09:25:58.661Z,61.0
2018-04-10T09:27:00.044Z,60.0
2018-04-10T09:28:01.415Z,60.6
2018-04-10T09:29:02.819Z,60.2
2018-04-10T09:30:04.166Z,60.1
2018-04-10T09:31:05.592Z,59.9
2018-04-10T09:32:06.919Z,60.1
2018-04-10T09:33:08.299Z,60.1
2018-04-10T09:34:09.679Z,60.4
2018-04-10T09:35:11.051Z,59.3
2018-04-10T09:36:12.424Z,59.5
2018-04-10T09:37:13.804Z,60.0
2018-04-10T09:38:15.183Z,59.4
2018-04-10T09:39:16.553Z,59.5
2018-04-10T09:40:17.924Z,60.0
2018-04-10T09:41:19.299Z,60.0
2018-04-10T09:42:20.678Z,59.8
2018-04-10T09:43:22.053Z,59.3
2018-04-10T09:44:23.422Z,59.3
2018-04-10T09:45:24.796Z,59.8
2018-04-10T09:46:26.177Z,60.0
2018-04-10T09:47:27.559Z,59.7
2018-04-10T09:48:28.932Z,59.7
2018-04-10T09:49:30.935Z,59.8
2018-04-10T09:50:32.306Z,59.6
2018-04-10T09:51:33.681Z,59.9
2018-04-10T09:52:35.059Z,59.4
2018-04-10T09:53:36.430Z,59.1
2018-04-10T09:54:37.807Z,59.0
2018-04-10T09:55:39.191Z,59.1
2018-04-10T09:56:40.569Z,58.9
2018-04-10T09:57:41.942Z,59.0
2018-04-10T09:58:43.320Z,59.0
2018-04-10T09:59:44.705Z,59.3
2018-04-10T10:00:46.081Z,59.1
2018-04-10T10:01:47.463Z,59.2
2018-04-10T10:02:48.834Z,58.7
2018-04-10T10:03:50.211Z,58.9
2018-04-10T10:04:51.589Z,58.5
2018-04-10T10:05:52.961Z,58.7
2018-04-10T10:06:54.337Z,58.6
2018-04-10T10:07:55.721Z,58.5
2018-04-10T10:08:57.091Z,58.5
2018-04-10T10:09:58.470Z,58.3
2018-04-10T10:10:59.850Z,58.3
2018-04-10T10:12:01.231Z,58.2
2018-04-10T10:13:02.634Z,58.0
2018-04-10T10:14:04.013Z,58.4
2018-04-10T10:15:05.382Z,58.0
2018-04-10T10:16:06.758Z,58.6
2018-04-10T10:17:08.129Z,58.3
2018-04-10T10:18:09.509Z,58.3
2018-04-10T10:19:10.887Z,58.5
2018-04-10T10:20:12.283Z,58.2
2018-04-10T10:21:13.657Z,58.6
2018-04-10T10:22:15.033Z,57.8
2018-04-10T10:23:16.420Z,57.8
2018-04-10T10:24:17.801Z,57.9
2018-04-10T10:25:19.173Z,58.0
2018-04-10T10:26:20.547Z,57.5
2018-04-10T10:27:21.923Z,57.6
2018-04-10T10:28:23.303Z,57.7
2018-04-10T10:29:24.680Z,57.2
2018-04-10T10:30:26.070Z,57.2
2018-04-10T10:31:27.447Z,57.5
2018-04-10T10:32:28.817Z,57.2
2018-04-10T10:33:30.190Z,57.4
2018-04-10T10:34:31.572Z,57.2
2018-04-10T10:35:32.947Z,57.1
2018-04-10T10:36:34.331Z,57.2
2018-04-10T10:37:35.707Z,57.5
2018-04-10T10:38:37.087Z,57.4
2018-04-10T10:39:38.465Z,57.0
2018-04-10T10:40:39.840Z,56.9
2018-04-10T10:41:41.219Z,56.6
2018-04-10T10:42:42.606Z,56.9
2018-04-10T10:43:43.983Z,57.0
2018-04-10T10:44:45.360Z,56.6
2018-04-10T10:45:46.743Z,56.6
2018-04-10T10:46:48.111Z,57.1
2018-04-10T10:47:49.491Z,56.7
2018-04-10T10:48:50.869Z,57.3
2018-04-10T10:49:52.252Z,56.6
2018-04-10T10:50:53.656Z,56.5
2018-04-10T10:51:55.093Z,56.3
2018-04-10T10:52:56.468Z,56.2
2018-04-10T10:53:57.843Z,56.3
2018-04-10T10:54:59.220Z,55.7
2018-04-10T10:56:00.608Z,55.6
2018-04-10T10:57:01.988Z,55.7
2018-04-10T10:58:03.398Z,55.6
2018-04-10T10:59:04.783Z,55.5
2018-04-10T11:00:06.176Z,55.8
2018-04-10T11:01:07.551Z,55.4
2018-04-10T11:02:08.931Z,55.8
2018-04-10T11:03:10.303Z,55.8
2018-04-10T11:04:11.676Z,56.0
2018-04-10T11:05:13.061Z,55.1
2018-04-10T11:06:14.435Z,54.9
2018-04-10T11:07:15.845Z,54.8
2018-04-10T11:08:17.223Z,54.9
2018-04-10T11:09:18.597Z,54.6
2018-04-10T11:10:19.974Z,54.6
2018-04-10T11:11:21.353Z,54.5
2018-04-10T11:12:22.729Z,54.6
2018-04-10T11:13:24.140Z,54.7
2018-04-10T11:14:25.517Z,54.1
2018-04-10T11:15:26.911Z,54.2
2018-04-10T11:16:28.290Z,53.8
2018-04-10T11:17:29.676Z,53.8
2018-04-10T11:18:31.056Z,53.9
2018-04-10T11:19:32.436Z,53.9
2018-04-10T11:20:33.856Z,53.5
2018-04-10T11:21:35.226Z,53.3
2018-04-10T11:22:36.600Z,53.2
2018-04-10T11:23:37.978Z,53.4
2018-04-10T11:24:39.357Z,53.5
2018-04-10T11:25:40.736Z,53.4
2018-04-10T11:26:42.119Z,53.4
2018-04-10T11:27:43.503Z,52.8
2018-04-10T11:28:44.891Z,52.7
2018-04-10T11:29:46.287Z,52.6
2018-04-10T11:30:47.660Z,52.8
2018-04-10T11:31:49.046Z,52.4
2018-04-10T11:32:50.427Z,52.3
2018-04-10T11:33:51.804Z,52.5
2018-04-10T11:34:53.179Z,51.9
2018-04-10T11:35:54.568Z,52.1
2018-04-10T11:36:55.954Z,52.3
2018-04-10T11:37:57.330Z,51.9
2018-04-10T11:38:58.712Z,51.8
2018-04-10T11:40:00.097Z,52.1
2018-04-10T11:41:01.481Z,51.0
2018-04-10T11:42:02.853Z,50.9
2018-04-10T11:43:04.233Z,50.9
2018-04-10T11:44:05.612Z,50.7
2018-04-10T11:45:07.002Z,50.2
2018-04-10T11:46:08.380Z,50.7
2018-04-10T11:47:09.775Z,50.0
2018-04-10T11:48:11.148Z,50.5
2018-04-10T11:49:12.538Z,50.2
2018-04-10T11:50:13.911Z,50.2
2018-04-10T11:51:15.309Z,50.2
2018-04-10T11:52:16.688Z,50.2
2018-04-10T11:53:18.062Z,50.0
2018-04-10T11:54:19.464Z,50.1
2018-04-10T11:55:20.831Z,50.0
2018-04-10T11:56:22.215Z,49.8
2018-04-10T11:57:23.592Z,49.7
2018-04-10T11:58:24.969Z,49.7
2018-04-10T11:59:26.345Z,49.6
2018-04-10T12:00:27.770Z,49.8
2018-04-10T12:01:29.155Z,49.6
2018-04-10T12:02:30.542Z,49.6
2018-04-10T12:03:31.917Z,49.7
2018-04-10T12:04:33.294Z,49.6
2018-04-10T12:05:34.670Z,49.3
2018-04-10T12:06:36.058Z,48.9
2018-04-10T12:07:37.436Z,48.8
2018-04-10T12:08:38.822Z,48.7
2018-04-10T12:09:40.193Z,48.7
2018-04-10T12:10:41.590Z,48.6
2018-04-10T12:11:42.976Z,48.4
2018-04-10T12:12:44.361Z,48.3
2018-04-10T12:13:45.739Z,48.4
2018-04-10T12:14:47.127Z,48.1
2018-04-10T12:15:48.501Z,48.4
2018-04-10T12:16:49.880Z,48.1
2018-04-10T12:17:51.260Z,48.4
2018-04-10T12:18:52.634Z,48.5
2018-04-10T12:19:54.012Z,48.0
2018-04-10T12:20:55.406Z,48.1
2018-04-10T12:21:56.793Z,47.5
2018-04-10T12:22:58.172Z,47.4
2018-04-10T12:23:59.553Z,47.4
2018-04-10T12:25:00.941Z,47.5
2018-04-10T12:26:02.335Z,47.6
2018-04-10T12:27:03.709Z,47.8
2018-04-10T12:28:05.090Z,47.2
2018-04-10T12:29:06.473Z,47.5
2018-04-10T12:30:07.851Z,46.9
2018-04-10T12:31:09.226Z,47.3
2018-04-10T12:32:10.611Z,46.9
2018-04-10T12:33:11.987Z,46.5
2018-04-10T12:34:13.381Z,46.3
2018-04-10T12:35:14.769Z,46.4
2018-04-10T12:36:16.148Z,46.4
2018-04-10T12:37:17.529Z,46.3
2018-04-10T12:38:18.916Z,46.0
2018-04-10T12:39:20.314Z,45.9
2018-04-10T12:40:21.696Z,45.4
2018-04-10T12:41:23.081Z,45.6
2018-04-10T12:42:24.461Z,45.9
2018-04-10T12:43:25.836Z,45.9
2018-04-10T12:44:27.217Z,45.3
2018-04-10T12:45:28.600Z,45.1
2018-04-10T12:46:29.982Z,45.5
2018-04-10T12:47:31.370Z,45.1
2018-04-10T12:48:32.761Z,45.2
2018-04-10T12:49:34.130Z,45.2
2018-04-10T12:50:35.505Z,45.0
2018-04-10T12:51:36.894Z,45.0
2018-04-10T12:52:38.302Z,44.9
2018-04-10T12:53:39.660Z,44.8
2018-04-10T12:54:41.048Z,44.9
2018-04-10T12:55:42.426Z,44.5
2018-04-10T12:56:43.798Z,44.7
2018-04-10T12:57:45.184Z,44.6
2018-04-10T12:58:46.568Z,44.3
2018-04-10T12:59:47.945Z,44.1
2018-04-10T13:00:49.329Z,44.0
2018-04-10T13:01:50.713Z,43.8
2018-04-10T13:02:52.099Z,43.7
2018-04-10T13:03:53.495Z,43.5
2018-04-10T13:04:54.876Z,43.3
2018-04-10T13:05:56.261Z,43.2
2018-04-10T13:06:57.646Z,43.3
2018-04-10T13:07:59.044Z,43.1
2018-04-10T13:09:00.428Z,43.2
2018-04-10T13:10:01.803Z,43.1
2018-04-10T13:11:03.183Z,42.9
2018-04-10T13:12:04.572Z,42.9
2018-04-10T13:13:05.948Z,42.7
2018-04-10T13:14:07.326Z,42.7
2018-04-10T13:15:08.711Z,42.8
2018-04-10T13:16:10.092Z,42.4
2018-04-10T13:17:11.473Z,42.8
2018-04-10T13:18:12.899Z,42.8
2018-04-10T13:19:14.286Z,42.7
2018-04-10T13:20:15.669Z,42.3
2018-04-10T13:21:17.048Z,42.4
2018-04-10T13:22:18.422Z,42.3
2018-04-10T13:23:19.809Z,42.3
2018-04-10T13:24:21.186Z,42.3
2018-04-10T13:25:22.576Z,42.9
2018-04-10T13:26:23.949Z,42.3
2018-04-10T13:27:25.328Z,42.7
2018-04-10T13:28:26.711Z,42.7
2018-04-10T13:29:28.101Z,42.3
2018-04-10T13:30:29.475Z,42.4
2018-04-10T13:31:30.860Z,42.5
2018-04-10T13:32:32.256Z,42.8
2018-04-10T13:33:33.621Z,42.6
2018-04-10T13:34:35.003Z,42.6
2018-04-10T13:35:36.384Z,42.8
2018-04-10T13:36:37.771Z,42.7